createdAt,value
2022-10-25T00:01:52.157Z,58.03
2022-10-25T00:06:51.065Z,58.05
2022-10-25T00:09:19.286Z,58.25
2022-10-25T00:11:47.518Z,58.27
2022-10-25T00:14:18.800Z,58.25
2022-10-25T00:16:47.191Z,58.38
2022-10-25T00:19:15.465Z,58.29
2022-10-25T00:21:43.790Z,58.40
2022-10-25T00:24:15.376Z,58.32
2022-10-25T00:26:43.664Z,58.54
2022-10-25T00:29:12.988Z,58.58
2022-10-25T00:31:41.438Z,58.74
2022-10-25T00:34:09.746Z,58.76
2022-10-25T00:36:38.039Z,58.88
2022-10-25T00:39:06.322Z,58.87
2022-10-25T00:41:36.512Z,59.00
2022-10-25T00:44:51.481Z,58.99
2022-10-25T00:47:35.045Z,59.05
2022-10-25T00:50:13.069Z,58.94
2022-10-25T00:52:43.730Z,58.91
2022-10-25T00:55:14.903Z,58.66
2022-10-25T00:57:49.168Z,58.86
2022-10-25T01:00:18.077Z,58.83
2022-10-25T01:02:46.567Z,58.73
2022-10-25T01:05:15.254Z,58.71
2022-10-25T01:07:43.714Z,58.62
2022-10-25T01:10:12.335Z,58.74
2022-10-25T01:12:40.693Z,58.85
2022-10-25T01:15:12.212Z,58.84
2022-10-25T01:17:52.828Z,58.92
2022-10-25T01:21:03.814Z,58.86
2022-10-25T01:24:06.369Z,58.69
2022-10-25T01:27:00.339Z,58.81
2022-10-25T01:30:09.585Z,58.60
2022-10-25T01:32:49.235Z,58.83
2022-10-25T01:35:27.862Z,58.66
2022-10-25T01:38:26.358Z,58.67
2022-10-25T01:41:10.021Z,58.73
2022-10-25T01:43:46.814Z,58.73
2022-10-25T01:46:22.843Z,58.73
2022-10-25T01:49:00.714Z,58.53
2022-10-25T01:51:29.780Z,58.45
2022-10-25T01:53:58.158Z,58.55
2022-10-25T01:56:30.438Z,58.40
2022-10-25T01:59:27.020Z,58.21
2022-10-25T02:02:07.997Z,58.48
2022-10-25T02:04:52.917Z,58.56
2022-10-25T02:07:27.868Z,58.38
2022-10-25T02:12:41.823Z,58.36
2022-10-25T02:15:16.011Z,58.32
2022-10-25T02:17:48.121Z,58.16
2022-10-25T02:20:20.291Z,58.17
2022-10-25T02:22:50.013Z,58.28
2022-10-25T02:25:19.595Z,57.98
2022-10-25T02:27:48.672Z,58.17
2022-10-25T02:30:17.284Z,58.23
2022-10-25T02:32:46.643Z,58.19
2022-10-25T02:35:18.739Z,58.24
2022-10-25T02:37:47.439Z,58.02
2022-10-25T02:40:16.182Z,58.02
2022-10-25T02:42:44.375Z,57.98
2022-10-25T02:45:12.776Z,58.11
2022-10-25T02:47:41.038Z,58.20
2022-10-25T02:50:10.321Z,58.15
2022-10-25T02:52:40.014Z,58.18
2022-10-25T02:55:09.501Z,58.03
2022-10-25T02:57:39.267Z,58.08
2022-10-25T03:00:10.333Z,58.12
2022-10-25T03:02:38.618Z,58.06
2022-10-25T03:05:07.660Z,57.92
2022-10-25T03:07:35.935Z,58.01
2022-10-25T03:10:06.811Z,57.88
2022-10-25T03:12:35.059Z,57.95
2022-10-25T03:15:03.296Z,57.91
2022-10-25T03:17:31.562Z,57.76
2022-10-25T03:19:59.810Z,57.79
2022-10-25T03:22:28.089Z,57.62
2022-10-25T03:24:56.341Z,57.47
2022-10-25T03:27:25.963Z,57.58
2022-10-25T03:29:54.872Z,57.45
2022-10-25T03:32:23.182Z,57.55
2022-10-25T03:34:51.387Z,57.60
2022-10-25T03:37:19.637Z,57.31
2022-10-25T03:39:47.851Z,57.40
2022-10-25T03:42:16.123Z,57.53
2022-10-25T03:44:45.754Z,57.53
2022-10-25T03:47:13.973Z,57.51
2022-10-25T03:49:42.248Z,57.49
2022-10-25T03:52:10.667Z,57.47
2022-10-25T03:54:39.091Z,57.45
2022-10-25T03:57:07.334Z,57.43
2022-10-25T03:59:35.536Z,57.55
2022-10-25T04:02:05.203Z,57.71
2022-10-25T04:04:33.549Z,57.82
2022-10-25T04:07:01.729Z,57.76
2022-10-25T04:09:30.020Z,57.67
2022-10-25T04:11:58.301Z,57.75
2022-10-25T04:14:26.683Z,57.76
2022-10-25T04:16:54.904Z,57.71
2022-10-25T04:19:24.535Z,57.63
2022-10-25T04:21:52.791Z,57.79
2022-10-25T04:24:22.690Z,57.58
2022-10-25T04:26:51.129Z,57.65
2022-10-25T04:29:19.363Z,57.67
2022-10-25T04:31:47.590Z,57.66
2022-10-25T04:34:15.841Z,57.46
2022-10-25T04:36:45.503Z,57.62
2022-10-25T04:39:13.689Z,57.66
2022-10-25T04:41:41.987Z,57.64
2022-10-25T04:44:10.247Z,57.76
2022-10-25T04:46:38.480Z,57.61
2022-10-25T04:49:06.714Z,57.73
2022-10-25T04:51:35.349Z,57.74
2022-10-25T04:54:05.034Z,57.67
2022-10-25T04:56:33.971Z,57.68
2022-10-25T04:59:02.255Z,57.69
2022-10-25T05:01:30.603Z,57.75
2022-10-25T05:03:58.853Z,57.74
2022-10-25T05:06:28.213Z,57.86
2022-10-25T05:08:56.572Z,57.71
2022-10-25T05:11:27.200Z,57.89
2022-10-25T05:13:55.538Z,58.05
2022-10-25T05:16:25.803Z,58.15
2022-10-25T05:18:56.343Z,58.24
2022-10-25T05:21:28.754Z,58.34
2022-10-25T05:24:01.447Z,58.47
2022-10-25T05:26:32.982Z,58.63
2022-10-25T05:29:01.238Z,58.71
2022-10-25T05:31:31.299Z,58.73
2022-10-25T05:34:01.910Z,59.06
2022-10-25T05:36:30.436Z,59.19
2022-10-25T05:39:00.848Z,59.01
2022-10-25T05:41:32.002Z,59.35
2022-10-25T05:44:04.547Z,59.42
2022-10-25T05:46:32.820Z,59.41
2022-10-25T05:49:01.602Z,59.45
2022-10-25T05:51:36.222Z,59.57
2022-10-25T05:54:07.166Z,59.61
2022-10-25T05:56:36.646Z,59.69
2022-10-25T05:59:08.973Z,59.78
2022-10-25T06:01:38.451Z,59.87
2022-10-25T06:04:07.466Z,59.94
2022-10-25T06:06:36.457Z,59.96
2022-10-25T06:09:05.503Z,60.10
2022-10-25T06:11:34.717Z,60.15
2022-10-25T06:14:03.108Z,60.23
2022-10-25T06:16:33.010Z,60.28
2022-10-25T06:19:01.202Z,60.36
2022-10-25T06:21:31.070Z,60.49
2022-10-25T06:24:00.425Z,60.39
2022-10-25T06:26:31.360Z,60.41
2022-10-25T06:29:02.109Z,60.47
2022-10-25T06:31:32.956Z,60.44
2022-10-25T06:34:01.507Z,60.49
2022-10-25T06:36:31.278Z,60.71
2022-10-25T06:39:05.907Z,60.75
2022-10-25T06:41:37.892Z,60.88
2022-10-25T06:44:07.680Z,61.22
2022-10-25T06:47:11.724Z,61.26
2022-10-25T06:49:28.449Z,61.37
2022-10-25T06:51:56.733Z,61.37
2022-10-25T06:54:26.751Z,61.41
2022-10-25T06:56:55.050Z,61.53
2022-10-25T06:59:23.671Z,61.53
2022-10-25T07:01:54.147Z,61.78
2022-10-25T07:04:22.694Z,62.07
2022-10-25T07:06:54.338Z,62.60
2022-10-25T07:09:23.789Z,62.59
2022-10-25T07:11:52.038Z,62.49
2022-10-25T07:14:20.277Z,62.59
2022-10-25T07:16:48.638Z,62.47
2022-10-25T07:19:18.203Z,62.40
2022-10-25T07:21:46.449Z,62.11
2022-10-25T07:24:14.934Z,62.00
2022-10-25T07:26:43.240Z,61.94
2022-10-25T07:29:11.799Z,61.80
2022-10-25T07:31:44.226Z,61.92
2022-10-25T07:34:15.177Z,61.76
2022-10-25T07:36:45.027Z,61.78
2022-10-25T07:39:13.879Z,61.61
2022-10-25T07:41:42.145Z,62.22
2022-10-25T07:44:16.064Z,63.03
2022-10-25T07:46:45.841Z,63.35
2022-10-25T07:49:15.350Z,63.84
2022-10-25T07:51:45.049Z,64.11
2022-10-25T07:54:13.315Z,64.07
2022-10-25T07:56:41.558Z,64.01
2022-10-25T07:59:09.790Z,63.57
2022-10-25T08:01:38.188Z,63.40
2022-10-25T08:04:06.497Z,62.87
2022-10-25T08:06:36.165Z,62.52
2022-10-25T08:09:14.556Z,62.28
2022-10-25T08:11:43.450Z,62.10
2022-10-25T08:14:11.777Z,61.57
2022-10-25T08:16:40.080Z,61.17
2022-10-25T08:19:08.537Z,60.39
2022-10-25T08:21:36.789Z,60.15
2022-10-25T08:24:07.646Z,59.85
2022-10-25T08:26:37.020Z,59.43
2022-10-25T08:29:05.661Z,58.78
2022-10-25T08:31:33.942Z,58.13
2022-10-25T08:34:02.201Z,57.67
2022-10-25T08:36:30.438Z,56.69
2022-10-25T08:38:58.701Z,56.26
2022-10-25T08:41:42.588Z,56.41
2022-10-25T08:44:18.674Z,56.38
2022-10-25T08:46:57.079Z,56.23
2022-10-25T08:49:34.549Z,56.00
2022-10-25T08:52:03.501Z,55.82
2022-10-25T08:54:38.575Z,55.53
2022-10-25T08:57:22.233Z,55.25
2022-10-25T08:59:53.302Z,53.91
2022-10-25T09:02:33.251Z,53.69
2022-10-25T09:05:01.580Z,53.48
2022-10-25T09:08:04.642Z,53.44
2022-10-25T09:10:50.257Z,53.29
2022-10-25T09:16:16.881Z,52.36
2022-10-25T09:18:50.954Z,52.36
2022-10-25T09:21:24.039Z,51.84
2022-10-25T09:24:02.343Z,51.01
2022-10-25T09:26:42.995Z,51.08
2022-10-25T09:29:29.881Z,51.09
2022-10-25T09:32:01.199Z,50.20
2022-10-25T09:34:34.089Z,49.72
2022-10-25T09:37:14.467Z,49.17
2022-10-25T09:39:47.521Z,48.77
2022-10-25T09:42:21.234Z,48.87
2022-10-25T09:44:56.246Z,47.07
2022-10-25T09:47:38.565Z,47.45
2022-10-25T09:50:13.311Z,46.77
2022-10-25T09:52:47.611Z,46.98
2022-10-25T09:55:33.616Z,46.82
2022-10-25T09:58:03.019Z,45.50
2022-10-25T10:00:34.923Z,45.29
2022-10-25T10:03:03.255Z,45.24
2022-10-25T10:05:33.046Z,45.02
2022-10-25T10:08:01.328Z,44.68
2022-10-25T10:10:34.373Z,44.86
2022-10-25T10:13:07.957Z,44.90
2022-10-25T10:15:46.478Z,45.06
2022-10-25T10:18:27.300Z,45.30
2022-10-25T10:21:19.223Z,45.27
2022-10-25T10:23:53.109Z,45.24
2022-10-25T10:26:28.064Z,45.48
2022-10-25T10:29:08.885Z,45.16
2022-10-25T10:31:41.207Z,44.96
2022-10-25T10:34:27.811Z,45.00
2022-10-25T10:37:16.186Z,45.44
2022-10-25T10:39:53.265Z,45.07
2022-10-25T10:42:24.151Z,45.25
2022-10-25T10:45:15.442Z,45.49
2022-10-25T10:47:54.342Z,44.56
2022-10-25T10:50:27.307Z,43.94
2022-10-25T10:53:00.693Z,43.61
2022-10-25T10:55:32.612Z,43.65
2022-10-25T10:58:05.555Z,43.70
2022-10-25T11:00:35.511Z,43.51
2022-10-25T11:03:05.921Z,43.23
2022-10-25T11:05:38.731Z,43.24
2022-10-25T11:08:20.100Z,43.06
2022-10-25T11:10:48.323Z,42.76
2022-10-25T11:13:18.506Z,41.55
2022-10-25T11:16:52.123Z,43.31
2022-10-25T11:19:38.596Z,42.24
2022-10-25T11:22:21.501Z,41.91
2022-10-25T11:25:04.271Z,41.71
2022-10-25T11:27:50.955Z,40.04
2022-10-25T11:30:22.877Z,40.35
2022-10-25T11:33:22.014Z,41.82
2022-10-25T11:36:11.374Z,40.81
2022-10-25T11:38:55.305Z,40.40
2022-10-25T11:41:37.823Z,40.47
2022-10-25T11:44:45.794Z,41.43
2022-10-25T11:47:29.703Z,41.51
2022-10-25T11:50:12.405Z,40.74
2022-10-25T11:53:20.509Z,40.45
2022-10-25T11:55:54.883Z,40.72
2022-10-25T11:58:39.280Z,40.29
2022-10-25T12:01:21.123Z,40.03
2022-10-25T12:04:02.551Z,40.32
2022-10-25T12:06:38.267Z,40.73
2022-10-25T12:09:17.604Z,39.70
2022-10-25T12:11:52.845Z,40.38
2022-10-25T12:14:29.410Z,39.79
2022-10-25T12:16:58.598Z,39.54
2022-10-25T12:19:31.095Z,39.48
2022-10-25T12:22:03.491Z,40.49
2022-10-25T12:24:41.285Z,40.97
2022-10-25T12:27:11.774Z,40.97
2022-10-25T12:29:45.633Z,41.23
2022-10-25T12:32:20.193Z,40.92
2022-10-25T12:34:52.515Z,41.26
2022-10-25T12:37:30.038Z,41.29
2022-10-25T12:39:59.795Z,41.15
2022-10-25T12:42:33.905Z,41.28
2022-10-25T12:45:35.453Z,41.63
2022-10-25T12:48:21.047Z,41.82
2022-10-25T12:51:18.924Z,40.77
2022-10-25T12:54:30.572Z,41.36
2022-10-25T12:57:09.880Z,40.66
2022-10-25T12:59:53.168Z,41.10
2022-10-25T13:03:08.462Z,41.62
2022-10-25T13:06:20.743Z,41.25
2022-10-25T13:08:49.975Z,40.62
2022-10-25T13:11:18.372Z,40.52
2022-10-25T13:13:53.697Z,40.47
2022-10-25T13:16:28.671Z,40.67
2022-10-25T13:19:53.423Z,40.43
2022-10-25T13:22:46.824Z,40.56
2022-10-25T13:25:39.866Z,40.68
2022-10-25T13:28:35.258Z,40.18
2022-10-25T13:31:59.637Z,40.56
2022-10-25T13:34:34.457Z,40.66
2022-10-25T13:37:22.865Z,40.33
2022-10-25T13:39:55.411Z,41.64
2022-10-25T13:42:32.750Z,41.93
2022-10-25T13:45:09.097Z,41.52
2022-10-25T13:47:42.309Z,41.39
2022-10-25T13:50:17.508Z,41.56
2022-10-25T13:53:02.411Z,40.59
2022-10-25T13:55:36.543Z,41.72
2022-10-25T13:58:49.346Z,41.89
2022-10-25T14:01:57.032Z,42.26
2022-10-25T14:04:40.505Z,42.63
2022-10-25T14:07:48.565Z,42.35
2022-10-25T14:10:38.532Z,42.60
2022-10-25T14:13:22.787Z,42.57
2022-10-25T14:15:59.183Z,42.80
2022-10-25T14:18:29.920Z,42.54
2022-10-25T14:21:05.328Z,42.54
2022-10-25T14:23:36.066Z,42.16
2022-10-25T14:26:07.710Z,42.36
2022-10-25T14:28:36.897Z,42.39
2022-10-25T14:31:08.291Z,42.45
2022-10-25T14:33:41.899Z,42.21
2022-10-25T14:36:20.096Z,42.56
2022-10-25T14:38:55.094Z,42.85
2022-10-25T14:41:25.667Z,43.08
2022-10-25T14:43:54.413Z,43.14
2022-10-25T14:46:26.202Z,43.08
2022-10-25T14:48:57.776Z,43.33
2022-10-25T14:51:29.906Z,43.62
2022-10-25T14:54:02.793Z,43.68
2022-10-25T14:56:34.765Z,44.25
2022-10-25T14:59:05.027Z,44.29
2022-10-25T15:01:35.830Z,44.31
2022-10-25T15:04:04.376Z,44.55
2022-10-25T15:06:33.807Z,44.47
2022-10-25T15:12:16.811Z,44.42
2022-10-25T15:14:47.454Z,44.72
2022-10-25T15:17:27.530Z,44.39
2022-10-25T15:20:07.100Z,44.51
2022-10-25T15:25:30.313Z,44.82
2022-10-25T15:28:10.370Z,44.46
2022-10-25T15:30:42.470Z,44.63
2022-10-25T15:33:15.397Z,44.41
2022-10-25T15:35:49.947Z,44.62
2022-10-25T15:38:19.004Z,44.73
2022-10-25T15:40:48.063Z,44.48
2022-10-25T15:43:16.892Z,44.63
2022-10-25T15:45:45.835Z,44.28
2022-10-25T15:48:19.283Z,44.52
2022-10-25T15:50:50.678Z,44.83
2022-10-25T15:53:19.753Z,44.55
2022-10-25T15:55:49.292Z,44.94
2022-10-25T16:00:48.024Z,45.09
2022-10-25T16:03:22.990Z,45.15
2022-10-25T16:05:53.116Z,45.14
2022-10-25T16:08:21.321Z,45.68
2022-10-25T16:10:49.692Z,45.73
2022-10-25T16:13:24.641Z,45.93
2022-10-25T16:15:53.288Z,46.12
2022-10-25T16:20:59.127Z,46.78
2022-10-25T16:23:28.325Z,46.96
2022-10-25T16:25:57.493Z,46.81
2022-10-25T16:30:59.038Z,47.67
2022-10-25T16:33:28.722Z,48.01
2022-10-25T16:35:56.936Z,48.19
2022-10-25T16:38:25.185Z,48.24
2022-10-25T16:40:53.418Z,48.17
2022-10-25T16:43:21.645Z,48.34
2022-10-25T16:45:49.867Z,48.68
2022-10-25T16:48:18.116Z,48.45
2022-10-25T16:50:47.749Z,48.70
2022-10-25T16:53:16.151Z,48.64
2022-10-25T16:55:44.497Z,48.80
2022-10-25T16:58:12.699Z,48.83
2022-10-25T17:00:40.979Z,48.92
2022-10-25T17:03:10.349Z,49.07
2022-10-25T17:05:39.845Z,49.15
2022-10-25T17:08:09.561Z,49.02
2022-10-25T17:10:42.401Z,49.09
2022-10-25T17:13:16.102Z,49.09
2022-10-25T17:15:44.627Z,49.03
2022-10-25T17:18:15.931Z,49.07
2022-10-25T17:20:44.409Z,49.02
2022-10-25T17:23:14.421Z,49.13
2022-10-25T17:25:42.789Z,49.25
2022-10-25T17:28:11.077Z,49.41
2022-10-25T17:30:43.147Z,49.56
2022-10-25T17:33:11.387Z,49.68
2022-10-25T17:35:42.497Z,49.68
2022-10-25T17:38:10.721Z,49.72
2022-10-25T17:40:40.654Z,49.88
2022-10-25T17:43:09.201Z,49.91
2022-10-25T17:45:37.430Z,49.63
2022-10-25T17:48:06.575Z,49.73
2022-10-25T17:50:36.121Z,49.65
2022-10-25T17:53:04.322Z,49.57
2022-10-25T17:55:34.739Z,49.61
2022-10-25T17:58:05.177Z,49.61
2022-10-25T18:00:34.154Z,49.56
2022-10-25T18:03:04.045Z,49.49
2022-10-25T18:05:32.453Z,49.40
2022-10-25T18:08:00.733Z,49.45
2022-10-25T18:10:29.041Z,49.75
2022-10-25T18:12:57.361Z,49.52
2022-10-25T18:15:27.254Z,49.51
2022-10-25T18:17:55.499Z,49.54
2022-10-25T18:20:25.225Z,49.61
2022-10-25T18:22:55.462Z,49.78
2022-10-25T18:25:23.685Z,49.72
2022-10-25T18:27:51.936Z,49.84
2022-10-25T18:30:20.271Z,49.78
2022-10-25T18:32:49.896Z,49.79
2022-10-25T18:35:18.253Z,49.67
2022-10-25T18:37:48.412Z,49.72
2022-10-25T18:40:16.853Z,49.70
2022-10-25T18:42:45.135Z,49.79
2022-10-25T18:45:13.453Z,49.63
2022-10-25T18:47:41.963Z,49.69
2022-10-25T18:50:11.747Z,49.75
2022-10-25T18:52:39.971Z,49.76
2022-10-25T18:55:08.674Z,49.92
2022-10-25T18:57:36.943Z,49.98
2022-10-25T19:00:07.121Z,50.01
2022-10-25T19:02:37.800Z,49.88
2022-10-25T19:07:41.643Z,49.99
2022-10-25T19:10:10.558Z,50.03
2022-10-25T19:12:38.946Z,50.07
2022-10-25T19:15:08.486Z,50.20
2022-10-25T19:17:36.694Z,50.28
2022-10-25T19:20:07.541Z,50.22
2022-10-25T19:22:35.755Z,50.20
2022-10-25T19:25:06.251Z,50.38
2022-10-25T19:27:34.526Z,50.39
2022-10-25T19:30:02.805Z,50.56
2022-10-25T19:32:31.997Z,50.53
2022-10-25T19:35:00.267Z,50.73
2022-10-25T19:37:28.560Z,50.85
2022-10-25T19:39:58.961Z,50.71
2022-10-25T19:42:28.795Z,50.83
2022-10-25T19:44:57.064Z,51.03
2022-10-25T19:47:25.427Z,50.96
2022-10-25T19:49:53.719Z,50.96
2022-10-25T19:52:22.013Z,50.90
2022-10-25T19:54:50.660Z,51.02
2022-10-25T19:57:18.922Z,50.91
2022-10-25T19:59:48.573Z,50.88
2022-10-25T20:02:16.949Z,50.90
2022-10-25T20:04:45.397Z,51.10
2022-10-25T20:07:13.694Z,51.04
2022-10-25T20:09:42.079Z,51.06
2022-10-25T20:12:10.374Z,51.05
2022-10-25T20:14:38.653Z,51.03
2022-10-25T20:17:08.334Z,51.01
2022-10-25T20:19:36.609Z,51.19
2022-10-25T20:22:06.730Z,51.24
2022-10-25T20:24:35.018Z,51.17
2022-10-25T20:27:03.331Z,51.21
2022-10-25T20:29:31.709Z,51.27
2022-10-25T20:32:00.030Z,51.33
2022-10-25T20:34:29.763Z,51.28
2022-10-25T20:36:57.919Z,51.33
2022-10-25T20:39:26.133Z,51.26
2022-10-25T20:41:54.466Z,51.33
2022-10-25T20:44:22.802Z,51.47
2022-10-25T20:46:51.357Z,51.45
2022-10-25T20:49:19.647Z,51.51
2022-10-25T20:51:49.259Z,51.61
2022-10-25T20:54:17.519Z,51.64
2022-10-25T20:56:45.718Z,51.52
2022-10-25T20:59:13.926Z,51.63
2022-10-25T21:01:42.258Z,51.56
2022-10-25T21:04:10.817Z,51.80
2022-10-25T21:06:42.019Z,51.58
2022-10-25T21:09:11.725Z,51.73
2022-10-25T21:11:45.068Z,51.67
2022-10-25T21:14:13.649Z,51.65
2022-10-25T21:16:41.906Z,51.68
2022-10-25T21:19:10.333Z,51.73
2022-10-25T21:21:38.576Z,51.80
2022-10-25T21:24:07.306Z,51.84
2022-10-25T21:26:37.062Z,51.85
2022-10-25T21:29:08.326Z,51.93
2022-10-25T21:31:36.589Z,51.94
2022-10-25T21:34:04.896Z,52.17
2022-10-25T21:36:33.257Z,52.12
2022-10-25T21:39:01.463Z,52.21
2022-10-25T21:41:30.029Z,52.21
2022-10-25T21:43:59.715Z,52.35
2022-10-25T21:46:29.234Z,52.36
2022-10-25T21:48:57.565Z,52.58
2022-10-25T21:51:26.313Z,52.46
2022-10-25T21:53:55.293Z,52.49
2022-10-25T21:56:30.649Z,52.58
2022-10-25T21:59:01.812Z,52.61
2022-10-25T22:01:31.409Z,52.50
2022-10-25T22:03:59.854Z,52.47
2022-10-25T22:06:28.652Z,52.43
2022-10-25T22:08:57.773Z,52.69
2022-10-25T22:11:28.625Z,52.71
2022-10-25T22:13:59.076Z,52.78
2022-10-25T22:16:30.665Z,53.03
2022-10-25T22:19:02.986Z,52.99
2022-10-25T22:21:33.897Z,53.08
2022-10-25T22:24:02.206Z,53.02
2022-10-25T22:26:30.534Z,52.93
2022-10-25T22:29:00.411Z,53.03
2022-10-25T22:31:31.486Z,53.44
2022-10-25T22:34:01.807Z,53.32
2022-10-25T22:36:32.841Z,53.41
2022-10-25T22:39:01.386Z,53.21
2022-10-25T22:41:30.954Z,53.33
2022-10-25T22:43:59.966Z,53.38
2022-10-25T22:46:31.906Z,53.30
2022-10-25T22:49:05.050Z,53.44
2022-10-25T22:51:33.485Z,53.36
2022-10-25T22:54:02.009Z,53.34
2022-10-25T22:56:31.941Z,53.32
2022-10-25T22:59:02.695Z,53.47
2022-10-25T23:01:34.908Z,53.36
2022-10-25T23:04:04.539Z,53.42
2022-10-25T23:06:35.517Z,53.50
2022-10-25T23:09:08.940Z,53.48
2022-10-25T23:11:39.838Z,53.65
2022-10-25T23:14:13.387Z,53.56
2022-10-25T23:16:46.566Z,53.65
2022-10-25T23:19:14.871Z,53.69
2022-10-25T23:21:43.114Z,53.78
2022-10-25T23:24:11.468Z,53.68
2022-10-25T23:26:39.968Z,53.86
2022-10-25T23:29:08.903Z,53.87
2022-10-25T23:31:38.359Z,53.67
2022-10-25T23:34:08.227Z,53.63
2022-10-25T23:36:38.232Z,53.86
2022-10-25T23:39:08.095Z,53.89
2022-10-25T23:41:36.678Z,53.95
2022-10-25T23:44:05.450Z,54.19
2022-10-25T23:46:33.729Z,54.31
2022-10-25T23:49:02.122Z,54.27
2022-10-25T23:51:31.760Z,54.26
2022-10-25T23:54:00.045Z,53.89
2022-10-25T23:56:28.370Z,54.03
2022-10-25T23:58:56.582Z,53.88
